Time;durP1;ratioP1;P1;durP2;ratioP2;P2;SDS_P1;SDS_P2;PMS_P1;PMS_P2;Temp;Humidity;BMP_temperature;BMP_pressure;BME280_temperature;BME280_humidity;BME280_pressure;Samples;Min_cycle;Max_cycle;Signal;HPM_P1;HPM_P2
2022/07/09 00:02:08;;;;;;;5.47;1.40;;;;;;;12.19;100.00;100122.84;5122144;27;20135;-80
2022/07/09 00:04:34;;;;;;;3.17;1.15;;;;;;;12.09;100.00;100107.66;5130981;27;20047;-80
2022/07/09 00:07:01;;;;;;;4.10;1.40;;;;;;;12.13;100.00;100133.56;5129546;27;20506;-80
2022/07/09 00:09:29;;;;;;;6.68;1.48;;;;;;;11.96;100.00;100109.03;5123029;27;20062;-80
2022/07/09 00:11:56;;;;;;;4.07;1.67;;;;;;;12.15;100.00;100134.25;5122736;27;20047;-80
2022/07/09 00:14:23;;;;;;;5.15;1.50;;;;;;;12.08;100.00;100119.63;5124787;27;20106;-80
2022/07/09 00:16:49;;;;;;;2.03;1.15;;;;;;;12.03;100.00;100117.41;5122846;27;20044;-80
2022/07/09 00:19:16;;;;;;;2.33;1.48;;;;;;;12.13;100.00;100123.50;5117388;27;20738;-80
2022/07/09 00:21:42;;;;;;;7.35;1.60;;;;;;;12.22;99.89;100118.91;5121660;27;20079;-80
2022/07/09 00:24:09;;;;;;;6.05;1.58;;;;;;;12.27;98.56;100123.84;5124490;27;20059;-80
2022/07/09 00:26:37;;;;;;;2.38;1.40;;;;;;;12.03;99.81;100114.69;5134083;27;20050;-80
2022/07/09 00:29:03;;;;;;;3.08;1.38;;;;;;;11.83;100.00;100097.78;5127804;27;20047;-80
2022/07/09 00:31:31;;;;;;;2.63;1.45;;;;;;;11.85;100.00;100104.75;5133653;27;20474;-80
2022/07/09 00:33:57;;;;;;;4.18;1.60;;;;;;;12.04;100.00;100119.97;5129353;27;20042;-80
2022/07/09 00:36:24;;;;;;;7.28;1.40;;;;;;;11.94;100.00;100113.81;5133753;27;20053;-80
2022/07/09 00:38:50;;;;;;;4.25;1.40;;;;;;;12.06;100.00;100125.25;5127325;27;20044;-80
2022/07/09 00:41:17;;;;;;;6.28;1.58;;;;;;;11.99;100.00;100116.03;5130536;27;20047;-80
2022/07/09 00:43:48;;;;;;;3.42;1.60;;;;;;;11.87;100.00;100107.31;5132292;27;20121;-80
2022/07/09 00:46:15;;;;;;;4.05;1.50;;;;;;;11.68;100.00;100109.38;5132604;27;20047;-80
2022/07/09 00:48:42;;;;;;;2.67;1.40;;;;;;;11.58;100.00;100086.03;5128466;27;20039;-80
2022/07/09 00:51:09;;;;;;;4.88;1.92;;;;;;;11.79;100.00;100108.16;5127201;27;20051;-80
2022/07/09 00:53:36;;;;;;;7.25;1.70;;;;;;;11.71;100.00;100094.53;5132153;27;20047;-80
2022/07/09 00:56:04;;;;;;;3.15;1.58;;;;;;;11.71;100.00;100088.25;5123866;27;20388;-80
2022/07/09 00:58:31;;;;;;;4.18;1.58;;;;;;;11.73;100.00;100097.97;5130617;27;20051;-79
2022/07/09 01:00:59;;;;;;;3.13;1.90;;;;;;;11.44;100.00;100084.81;5125893;27;20043;-80
2022/07/09 01:03:26;;;;;;;1.88;1.48;;;;;;;11.34;100.00;100091.25;5132305;27;20059;-80
2022/07/09 01:05:53;;;;;;;8.18;2.40;;;;;;;11.29;100.00;100071.88;5130363;27;20035;-80
2022/07/09 01:08:19;;;;;;;5.20;2.10;;;;;;;11.45;100.00;100086.53;5123560;27;20051;-80
2022/07/09 01:10:47;;;;;;;4.63;2.30;;;;;;;11.46;100.00;100088.22;5131762;27;20054;-80
2022/07/09 01:13:13;;;;;;;3.15;1.90;;;;;;;11.66;100.00;100088.75;5131591;27;20063;-80
2022/07/09 01:15:40;;;;;;;3.30;1.65;;;;;;;11.41;100.00;100053.34;5133323;27;20416;-80
2022/07/09 01:18:10;;;;;;;3.90;1.50;;;;;;;11.33;100.00;100072.38;5124233;27;20063;-80
2022/07/09 01:20:38;;;;;;;5.47;1.75;;;;;;;11.21;100.00;100071.84;5133244;27;20043;-80
2022/07/09 01:23:05;;;;;;;3.17;1.50;;;;;;;11.38;100.00;100082.75;5126953;27;20115;-79
2022/07/09 01:25:36;;;;;;;2.95;1.45;;;;;;;11.25;100.00;100075.94;5132591;27;20058;-80
2022/07/09 01:28:05;;;;;;;2.42;1.35;;;;;;;11.13;100.00;100063.66;5125006;27;20058;-80
2022/07/09 01:30:31;;;;;;;7.68;2.40;;;;;;;11.14;100.00;100060.78;5132885;27;20047;-80
2022/07/09 01:32:58;;;;;;;1.98;1.38;;;;;;;11.37;100.00;100079.19;5129977;27;20047;-80
2022/07/09 01:35:24;;;;;;;3.08;1.50;;;;;;;11.24;100.00;100076.09;5132588;27;20117;-80
2022/07/09 01:37:53;;;;;;;3.58;1.80;;;;;;;11.31;100.00;100066.25;5118019;27;20045;-80
2022/07/09 01:40:20;;;;;;;2.50;1.50;;;;;;;11.22;100.00;100073.56;5131490;27;20104;-79
2022/07/09 01:42:48;;;;;;;2.42;1.70;;;;;;;11.14;100.00;100062.63;5130252;27;20122;-80
2022/07/09 01:45:15;;;;;;;5.53;1.80;;;;;;;11.25;100.00;100058.75;5130326;27;20436;-80
2022/07/09 01:47:42;;;;;;;4.15;1.77;;;;;;;10.91;100.00;100051.53;5128636;27;20490;-80
2022/07/09 01:50:09;;;;;;;3.13;1.65;;;;;;;10.95;100.00;100053.75;5132201;27;20435;-80
2022/07/09 01:52:37;;;;;;;2.17;1.55;;;;;;;10.97;100.00;100048.13;5130858;27;20278;-80
2022/07/09 01:55:06;;;;;;;4.65;1.70;;;;;;;11.07;100.00;100064.34;5126473;27;20048;-80
2022/07/09 01:57:33;;;;;;;1.93;1.47;;;;;;;11.21;100.00;100060.09;5120487;27;20402;-80
2022/07/09 01:59:59;;;;;;;5.45;1.92;;;;;;;11.18;100.00;100055.00;5132046;27;20778;-80
2022/07/09 02:02:26;;;;;;;4.13;2.00;;;;;;;11.09;100.00;100049.53;5130553;27;20062;-80
2022/07/09 02:04:53;;;;;;;4.18;1.55;;;;;;;10.96;100.00;100041.03;5128973;27;20486;-80
2022/07/09 02:07:19;;;;;;;6.47;1.65;;;;;;;10.86;100.00;100040.31;5126086;27;20109;-80
2022/07/09 02:09:46;;;;;;;3.38;1.80;;;;;;;10.67;100.00;100015.06;5131907;27;20043;-80
2022/07/09 02:12:14;;;;;;;5.53;2.17;;;;;;;10.79;100.00;100026.50;5118995;27;20533;-80
2022/07/09 02:14:40;;;;;;;3.75;1.90;;;;;;;11.01;100.00;100038.63;5130109;27;20043;-80
2022/07/09 02:17:07;;;;;;;5.45;1.85;;;;;;;10.87;100.00;100025.66;5123373;27;20061;-80
2022/07/09 02:19:33;;;;;;;6.45;1.80;;;;;;;10.95;100.00;100042.03;5132315;27;20089;-80
2022/07/09 02:22:00;;;;;;;6.88;1.75;;;;;;;11.00;100.00;100049.69;5131591;27;20070;-80
2022/07/09 02:24:28;;;;;;;4.50;1.92;;;;;;;10.71;100.00;100027.31;5123522;27;20047;-80
2022/07/09 02:26:54;;;;;;;5.60;1.58;;;;;;;10.68;100.00;100029.53;5122296;27;20437;-80
2022/07/09 02:29:22;;;;;;;5.50;1.60;;;;;;;10.55;100.00;100022.69;5125354;27;20044;-80
2022/07/09 02:31:49;;;;;;;7.45;2.15;;;;;;;10.59;100.00;100034.94;5130254;27;20055;-80
2022/07/09 02:34:15;;;;;;;6.30;1.70;;;;;;;10.73;100.00;100044.31;5129125;27;20043;-80
2022/07/09 02:36:42;;;;;;;3.83;1.95;;;;;;;10.80;100.00;100047.25;5130422;27;20047;-80
2022/07/09 02:39:08;;;;;;;4.50;1.80;;;;;;;10.92;100.00;100040.47;5129764;27;20047;-80
2022/07/09 02:41:35;;;;;;;3.92;1.60;;;;;;;10.82;100.00;100026.16;5131894;27;20134;-80
2022/07/09 02:44:01;;;;;;;4.45;1.80;;;;;;;10.82;100.00;100028.88;5124572;27;20039;-79
2022/07/09 02:46:29;;;;;;;4.47;1.60;;;;;;;10.84;100.00;100051.34;5131552;28;20074;-80
2022/07/09 02:48:56;;;;;;;3.55;1.85;;;;;;;10.67;100.00;100044.13;5131122;27;20494;-79
2022/07/09 02:51:22;;;;;;;2.15;1.55;;;;;;;10.67;100.00;100035.97;5131547;28;20048;-80
2022/07/09 02:53:49;;;;;;;4.70;2.00;;;;;;;10.71;100.00;100050.97;5126429;27;20524;-80
2022/07/09 02:56:15;;;;;;;2.60;2.00;;;;;;;10.47;100.00;100038.13;5129606;28;20540;-80
2022/07/09 02:58:42;;;;;;;5.00;1.67;;;;;;;10.43;100.00;100032.13;5132511;27;20054;-80
2022/07/09 03:01:08;;;;;;;2.78;2.10;;;;;;;10.55;100.00;100033.56;5132565;27;20061;-79
2022/07/09 03:03:36;;;;;;;3.50;1.70;;;;;;;10.57;100.00;100031.53;5134280;27;20130;-80
2022/07/09 03:06:03;;;;;;;1.83;1.65;;;;;;;10.57;100.00;100055.16;5132229;27;20045;-80
2022/07/09 03:08:30;;;;;;;4.03;1.85;;;;;;;10.43;100.00;100049.31;5130536;27;20047;-79
2022/07/09 03:10:57;;;;;;;4.15;1.67;;;;;;;10.16;100.00;100034.03;5128098;27;20398;-79
2022/07/09 03:36:57;;;;;;;2.75;1.45;;;;;;;10.07;100.00;100056.69;5130108;27;20070;-80
2022/07/09 03:39:24;;;;;;;2.05;1.83;;;;;;;10.23;100.00;100050.53;5132884;27;20395;-80
2022/07/09 03:41:50;;;;;;;4.55;1.88;;;;;;;10.34;100.00;100063.00;5129954;27;20043;-80
2022/07/09 03:44:17;;;;;;;2.78;1.80;;;;;;;10.20;100.00;100039.97;5132417;27;20418;-80
2022/07/09 03:46:44;;;;;;;4.35;2.08;;;;;;;10.33;100.00;100059.44;5128871;27;20050;-80
2022/07/09 03:49:11;;;;;;;4.07;1.85;;;;;;;10.37;100.00;100060.84;5135118;27;20051;-80
2022/07/09 03:51:37;;;;;;;2.03;1.73;;;;;;;10.43;100.00;100052.03;5124174;27;20054;-80
2022/07/09 03:54:05;;;;;;;5.97;3.00;;;;;;;10.56;100.00;100064.31;5134340;27;20134;-80
2022/07/09 03:56:32;;;;;;;2.65;1.63;;;;;;;10.47;100.00;100038.13;5127448;27;20153;-80
2022/07/09 03:58:58;;;;;;;6.78;2.20;;;;;;;10.58;100.00;100049.56;5133392;27;20486;-80
2022/07/09 04:01:25;;;;;;;3.40;1.73;;;;;;;10.51;100.00;100050.34;5132612;27;20051;-79
2022/07/09 04:03:52;;;;;;;4.32;1.90;;;;;;;10.58;100.00;100057.72;5131054;27;20047;-80
2022/07/09 04:06:20;;;;;;;7.28;2.10;;;;;;;10.54;100.00;100039.19;5131131;27;20138;-80
2022/07/09 04:08:46;;;;;;;3.33;1.77;;;;;;;10.56;100.00;100039.84;5128270;27;20083;-80
2022/07/09 04:11:14;;;;;;;3.63;1.85;;;;;;;10.58;100.00;100044.13;5131914;27;20047;-80
2022/07/09 04:13:40;;;;;;;3.03;2.00;;;;;;;10.67;100.00;100044.97;5125779;27;20087;-80
2022/07/09 04:16:07;;;;;;;5.78;2.20;;;;;;;10.89;100.00;100046.25;5131515;27;20047;-80
2022/07/09 04:18:35;;;;;;;3.63;1.70;;;;;;;10.84;100.00;100053.19;5134034;27;20044;-80
2022/07/09 04:21:01;;;;;;;3.38;1.88;;;;;;;11.02;100.00;100058.53;5129311;27;20040;-80
2022/07/09 04:23:28;;;;;;;4.35;1.60;;;;;;;11.17;100.00;100059.59;5125151;27;20494;-80
2022/07/09 04:25:55;;;;;;;3.30;1.92;;;;;;;11.21;100.00;100060.09;5133202;27;20053;-80
2022/07/09 04:28:23;;;;;;;3.38;1.80;;;;;;;11.22;100.00;100062.66;5132823;27;20047;-80
2022/07/09 04:30:49;;;;;;;3.55;2.20;;;;;;;11.21;100.00;100046.50;5129365;27;20050;-80
2022/07/09 04:33:16;;;;;;;3.00;2.30;;;;;;;11.40;100.00;100075.28;5131563;27;20054;-77
2022/07/09 04:35:42;;;;;;;4.53;2.00;;;;;;;11.51;100.00;100070.34;5133245;27;20054;-77
2022/07/09 04:38:09;;;;;;;3.03;2.00;;;;;;;11.45;100.00;100051.13;5133424;27;20051;-79
2022/07/09 04:40:35;;;;;;;7.50;4.20;;;;;;;11.47;100.00;100055.38;5132617;27;20049;-80
2022/07/09 04:43:02;;;;;;;4.22;1.92;;;;;;;11.48;100.00;100056.22;5131213;27;20039;-80
2022/07/09 04:45:30;;;;;;;4.47;2.22;;;;;;;11.49;100.00;100082.44;5132935;27;20059;-80
2022/07/09 04:47:58;;;;;;;3.25;2.08;;;;;;;11.56;100.00;100060.81;5120492;27;20127;-80
2022/07/09 04:50:25;;;;;;;5.30;2.10;;;;;;;11.76;100.00;100077.72;5128455;27;20061;-80
2022/07/09 04:52:51;;;;;;;3.75;2.33;;;;;;;11.74;100.00;100071.56;5127824;27;20058;-79
2022/07/09 04:55:18;;;;;;;3.95;2.08;;;;;;;11.70;100.00;100057.44;5130284;27;20058;-80
2022/07/09 04:57:46;;;;;;;2.63;1.77;;;;;;;11.91;100.00;100051.47;5121367;27;20054;-80
2022/07/09 05:00:15;;;;;;;5.88;1.80;;;;;;;12.21;100.00;100063.53;5127175;27;20045;-80
2022/07/09 05:02:43;;;;;;;8.20;1.70;;;;;;;12.26;100.00;100067.63;5130703;27;20290;-80
2022/07/09 05:05:10;;;;;;;6.28;1.92;;;;;;;12.49;100.00;100035.84;5130609;27;20047;-80
2022/07/09 05:07:37;;;;;;;6.53;1.98;;;;;;;12.95;98.01;100069.75;5132994;27;20043;-81
2022/07/09 05:10:05;;;;;;;4.63;1.90;;;;;;;13.11;97.36;100053.28;5125536;27;20044;-80
2022/07/09 05:12:31;;;;;;;4.93;1.88;;;;;;;13.41;95.81;100054.34;5129147;27;20043;-80
2022/07/09 05:14:58;;;;;;;7.07;2.10;;;;;;;13.62;94.39;100053.66;5132750;27;20051;-80
2022/07/09 05:17:25;;;;;;;5.25;2.22;;;;;;;13.92;92.62;100041.94;5123188;27;20059;-80
2022/07/09 05:19:53;;;;;;;2.22;1.55;;;;;;;14.77;88.25;100059.88;5133801;27;20132;-80
2022/07/09 05:22:19;;;;;;;1.75;1.50;;;;;;;15.31;84.09;100063.22;5122435;27;20061;-78
2022/07/09 05:24:46;;;;;;;3.97;2.33;;;;;;;15.64;81.52;100038.06;5132827;27;20057;-78
2022/07/09 05:27:12;;;;;;;5.70;1.70;;;;;;;16.00;80.26;100031.66;5132368;27;20402;-80
2022/07/09 05:29:39;;;;;;;4.85;2.17;;;;;;;16.39;77.00;100054.91;5133890;27;20049;-80
2022/07/09 05:32:07;;;;;;;4.00;1.30;;;;;;;16.48;75.21;100023.50;5130184;27;20050;-80
2022/07/09 05:34:33;;;;;;;3.83;1.77;;;;;;;16.85;75.19;100048.00;5128351;27;20043;-79
2022/07/09 05:37:01;;;;;;;4.22;1.58;;;;;;;17.27;72.81;100048.81;5130557;27;20055;-79
2022/07/09 05:39:28;;;;;;;5.57;1.67;;;;;;;17.69;71.57;100055.88;5123441;27;20057;-79
2022/07/09 05:41:54;;;;;;;3.05;1.85;;;;;;;17.65;70.28;100049.09;5124558;27;20062;-80
2022/07/09 05:44:21;;;;;;;4.72;1.90;;;;;;;17.95;69.08;100062.47;5131117;27;20069;-80
2022/07/09 05:46:47;;;;;;;3.38;1.52;;;;;;;17.81;68.30;100038.72;5130071;27;20054;-80
2022/07/09 05:49:14;;;;;;;8.00;1.50;;;;;;;18.12;67.86;100040.03;5131529;27;20043;-80
2022/07/09 05:51:40;;;;;;;6.47;1.30;;;;;;;18.16;67.22;100047.66;5123320;27;20066;-80
2022/07/09 05:54:08;;;;;;;6.30;1.60;;;;;;;18.49;67.70;100052.25;5131318;27;20047;-80
2022/07/09 05:56:36;;;;;;;8.98;1.73;;;;;;;18.55;65.89;100056.91;5129842;27;20069;-80
2022/07/09 05:59:03;;;;;;;8.85;2.42;;;;;;;18.30;65.56;100058.63;5131554;27;20066;-81
2022/07/09 06:01:29;;;;;;;5.82;1.83;;;;;;;18.25;65.74;100052.94;5122220;27;20484;-80
2022/07/09 06:03:57;;;;;;;7.68;1.80;;;;;;;18.50;64.11;100047.59;5124719;27;20036;-80
2022/07/09 06:06:23;;;;;;;5.07;1.77;;;;;;;18.66;62.44;100043.53;5125033;27;20130;-81
2022/07/09 06:08:50;;;;;;;5.65;2.10;;;;;;;18.57;62.38;100016.22;5130513;27;20045;-81
2022/07/09 06:11:18;;;;;;;3.63;1.85;;;;;;;18.89;61.21;100054.06;5130819;27;20658;-80
2022/07/09 06:13:44;;;;;;;4.90;1.58;;;;;;;19.30;61.23;100058.34;5121358;27;20043;-83
2022/07/09 06:16:11;;;;;;;5.40;2.17;;;;;;;19.14;59.35;100047.81;5127086;27;20043;-82
2022/07/09 06:18:38;;;;;;;6.93;1.80;;;;;;;19.02;60.97;100045.75;5131085;27;20047;-82
2022/07/09 06:21:05;;;;;;;5.15;1.83;;;;;;;19.17;61.58;100034.44;5128359;27;20390;-82
2022/07/09 06:23:31;;;;;;;3.60;1.80;;;;;;;19.69;59.71;100053.66;5123837;27;20047;-82
2022/07/09 06:25:58;;;;;;;6.25;1.80;;;;;;;19.98;58.08;100043.03;5130645;27;20500;-82
2022/07/09 06:28:26;;;;;;;4.03;1.70;;;;;;;19.84;58.91;100027.66;5128415;27;20409;-82
2022/07/09 06:30:52;;;;;;;4.20;1.60;;;;;;;19.79;58.10;100045.72;5127184;27;20051;-82
2022/07/09 06:33:19;;;;;;;6.90;2.30;;;;;;;19.82;56.86;100013.25;5125246;27;20054;-82
2022/07/09 06:35:45;;;;;;;6.10;1.88;;;;;;;20.06;57.02;100044.69;5132072;27;20055;-79
2022/07/09 06:38:12;;;;;;;6.30;1.90;;;;;;;20.44;57.28;100038.97;5131593;27;20043;-79
2022/07/09 06:40:38;;;;;;;5.05;1.92;;;;;;;20.85;53.92;100039.41;5130294;27;20059;-78
2022/07/09 06:43:05;;;;;;;7.03;1.42;;;;;;;21.15;53.07;100024.78;5124596;27;20047;-81
2022/07/09 06:45:33;;;;;;;8.55;1.90;;;;;;;21.00;52.29;100012.22;5131826;27;20047;-83
2022/07/09 06:48:00;;;;;;;3.13;1.40;;;;;;;21.71;51.63;100033.78;5131363;28;20131;-82
2022/07/09 06:50:41;;;;;;;7.03;1.73;;;;;;;22.06;50.76;100024.69;5042430;27;20910;-81
2022/07/09 06:53:08;;;;;;;3.92;1.45;;;;;;;21.79;51.46;100010.47;5025476;28;20046;-81
2022/07/09 06:55:34;;;;;;;3.47;1.60;;;;;;;21.42;52.23;100029.94;5031038;28;20411;-81
2022/07/09 06:58:01;;;;;;;7.43;1.75;;;;;;;21.09;52.38;100015.50;5027982;28;20100;-82
2022/07/09 07:00:28;;;;;;;5.72;1.75;;;;;;;20.52;53.75;100022.13;5024418;28;20441;-81
2022/07/09 07:13:01;;;;;;;7.70;2.08;;;;;;;21.17;54.05;100036.47;5022051;28;20044;-82
2022/07/09 07:15:28;;;;;;;3.60;1.60;;;;;;;21.28;53.13;100005.22;5018252;28;20049;-82
2022/07/09 07:17:54;;;;;;;10.75;3.65;;;;;;;21.51;53.82;100032.19;5034238;28;20060;-81
2022/07/09 07:20:24;;;;;;;8.07;1.75;;;;;;;21.07;53.22;100005.75;5030331;28;20056;-81
2022/07/09 07:22:51;;;;;;;;;;;;;;;21.09;55.63;100036.75;5023321;28;20072;-81
2022/07/09 07:25:17;;;;;;;3.83;1.60;;;;;;;20.92;54.37;100028.28;5029795;28;19927;-82
2022/07/09 07:27:44;;;;;;;3.63;1.70;;;;;;;20.70;54.42;100023.25;5043679;28;20474;-83
2022/07/09 07:30:12;;;;;;;7.97;2.28;;;;;;;20.75;55.94;100008.72;5030663;27;20487;-82
2022/07/09 08:03:33;;;;;;;5.63;1.67;;;;;;;22.57;47.57;100020.34;5015799;28;20181;-82
2022/07/09 08:06:00;;;;;;;4.50;1.70;;;;;;;22.80;46.68;100005.59;5014731;28;20049;-82
2022/07/09 08:08:27;;;;;;;3.55;1.30;;;;;;;22.63;47.71;100013.84;5021462;28;20041;-82
2022/07/09 08:10:53;;;;;;;2.42;1.58;;;;;;;22.63;48.52;99991.66;5010864;28;20065;-81
2022/07/09 08:13:20;;;;;;;4.43;1.90;;;;;;;22.54;48.79;100014.47;5050665;28;20477;-83
2022/07/09 08:15:47;;;;;;;5.93;1.95;;;;;;;22.74;48.77;99994.66;5029972;28;20055;-80
2022/07/09 08:18:14;;;;;;;4.25;1.60;;;;;;;22.98;50.22;99998.19;5010224;28;20078;-80
2022/07/09 08:20:43;;;;;;;2.47;1.50;;;;;;;23.22;49.55;100004.53;5009486;28;20081;-81
2022/07/09 08:23:12;;;;;;;5.20;1.70;;;;;;;22.85;47.74;99992.94;5001427;28;20052;-80
2022/07/09 08:25:39;;;;;;;6.53;1.73;;;;;;;23.41;46.84;99999.63;5022607;28;20129;-81
2022/07/09 08:28:06;;;;;;;14.80;1.48;;;;;;;23.52;47.19;100003.41;5021589;28;20056;-81
2022/07/09 08:30:32;;;;;;;6.10;1.75;;;;;;;23.56;47.09;99989.88;5045155;28;20404;-81
2022/07/09 08:32:59;;;;;;;3.35;1.30;;;;;;;23.01;45.94;99991.31;5011410;28;20054;-82
2022/07/09 08:35:26;;;;;;;3.47;1.30;;;;;;;23.32;45.72;99996.41;5010960;28;20050;-80
2022/07/09 08:37:55;;;;;;;3.92;1.33;;;;;;;23.38;46.38;99996.47;5008183;28;20463;-81
2022/07/09 08:40:22;;;;;;;4.65;1.83;;;;;;;23.44;47.23;99999.13;5011405;28;20117;-81
2022/07/09 08:42:49;;;;;;;5.55;1.30;;;;;;;23.77;46.56;99979.94;5016446;28;20050;-81
2022/07/09 08:45:18;;;;;;;5.80;1.38;;;;;;;23.81;46.03;99995.00;5011065;28;20465;-81
2022/07/09 08:47:44;;;;;;;9.10;2.03;;;;;;;23.73;47.94;99959.38;5008383;28;20052;-81
2022/07/09 08:50:11;;;;;;;3.22;1.65;;;;;;;23.93;46.54;99990.25;5020045;28;20654;-81
2022/07/09 08:52:41;;;;;;;5.55;1.63;;;;;;;24.01;46.28;99975.94;5045495;28;20138;-81
2022/07/09 08:55:10;;;;;;;3.80;1.92;;;;;;;24.10;45.65;99972.72;5010881;28;20074;-81
2022/07/09 08:57:37;;;;;;;7.85;2.17;;;;;;;24.27;45.89;99970.75;5009713;28;20060;-81
2022/07/09 09:00:05;;;;;;;6.68;2.00;;;;;;;24.05;43.43;99964.31;5013007;28;20049;-81
2022/07/09 09:02:36;;;;;;;5.30;1.48;;;;;;;23.99;43.43;99963.41;5010713;28;20129;-81
2022/07/09 09:05:07;;;;;;;3.22;1.00;;;;;;;24.12;44.43;99953.88;5009839;28;20099;-81
2022/07/09 09:07:34;;;;;;;2.58;1.10;;;;;;;23.97;44.34;99966.44;5009551;28;20054;-81
2022/07/09 09:10:00;;;;;;;2.95;0.93;;;;;;;23.84;44.99;99967.56;5039594;28;20040;-82
2022/07/09 09:33:33;;;;;;;1.15;0.82;;;;;;;24.91;42.17;99938.78;5002018;28;20117;-81
2022/07/09 09:49:28;;;;;;;3.22;0.80;;;;;;;25.22;41.22;99930.78;5012442;28;20037;-81
2022/07/09 09:52:01;;;;;;;2.92;0.80;;;;;;;25.53;41.32;99926.34;5008395;28;20065;-82
2022/07/09 09:54:28;;;;;;;4.80;1.08;;;;;;;25.60;40.37;99903.84;5000640;28;20453;-82
2022/07/09 09:56:55;;;;;;;4.05;1.35;;;;;;;25.35;40.42;99919.25;5008992;28;20046;-81
2022/07/09 09:59:22;;;;;;;3.28;0.98;;;;;;;25.24;40.66;99923.81;5013407;28;20068;-81
2022/07/09 10:01:49;;;;;;;3.35;1.13;;;;;;;24.92;41.36;99910.72;5007624;28;20127;-81
2022/07/09 10:04:16;;;;;;;6.30;1.10;;;;;;;25.19;42.11;99907.09;5008296;28;20057;-81
2022/07/09 10:06:44;;;;;;;2.83;0.68;;;;;;;25.03;41.72;99913.63;5008612;28;20070;-82
2022/07/09 10:09:13;;;;;;;2.45;0.82;;;;;;;24.66;43.20;99909.59;5013799;28;20056;-81
2022/07/09 10:11:44;;;;;;;1.83;0.75;;;;;;;24.68;42.53;99899.06;5008271;28;20061;-81
2022/07/09 10:14:33;;;;;;;4.78;0.90;;;;;;;24.84;41.62;99911.19;5008320;28;20054;-82
2022/07/09 10:17:11;;;;;;;2.67;0.70;;;;;;;25.16;41.08;99906.78;5011071;28;20045;-81
2022/07/09 10:19:38;;;;;;;2.50;0.80;;;;;;;25.04;41.73;99902.22;5001680;28;20637;-81
2022/07/09 10:22:06;;;;;;;3.35;1.00;;;;;;;25.30;39.76;99904.44;5008042;28;20128;-80
2022/07/09 10:24:34;;;;;;;2.42;0.82;;;;;;;25.80;38.65;99878.09;5007550;28;20054;-81
2022/07/09 10:27:06;;;;;;;1.23;0.82;;;;;;;25.91;37.83;99899.34;5011435;28;20050;-81
2022/07/09 10:29:33;;;;;;;3.15;0.80;;;;;;;26.06;38.25;99900.56;5000910;28;20050;-81
2022/07/09 10:32:01;;;;;;;1.98;0.90;;;;;;;26.09;36.85;99897.22;5008186;28;20411;-81
2022/07/09 10:34:58;;;;;;;1.92;0.73;;;;;;;25.56;39.17;99892.44;5049664;28;20056;-81
2022/07/09 10:37:34;;;;;;;2.40;1.00;;;;;;;25.14;38.44;99881.16;4969684;28;20073;-81
2022/07/09 10:40:14;;;;;;;2.30;0.90;;;;;;;25.31;38.53;99873.56;5000548;28;20050;-81
2022/07/09 10:42:41;;;;;;;;;;;;;;;26.10;38.57;99890.56;5008332;28;20057;-81
2022/07/09 10:45:22;;;;;;;5.18;0.70;;;;;;;26.23;37.42;99880.88;5007743;28;19921;-82
2022/07/09 10:47:53;;;;;;;3.03;0.77;;;;;;;26.36;36.62;99874.81;5009049;28;20455;-82
2022/07/09 10:50:19;;;;;;;3.15;1.02;;;;;;;26.88;36.64;99880.56;5002254;28;20096;-81
2022/07/09 10:52:49;;;;;;;5.03;2.35;;;;;;;26.83;36.29;99887.81;5007412;28;20378;-83
2022/07/09 10:55:16;;;;;;;;;;;;;;;26.74;37.01;99888.59;5008546;28;20081;-82
2022/07/09 10:57:43;;;;;;;3.92;1.10;;;;;;;26.54;36.74;99875.41;5008165;28;19921;-83
2022/07/09 11:00:14;;;;;;;5.53;0.98;;;;;;;26.43;36.85;99878.16;5006954;28;20053;-82
2022/07/09 11:02:52;;;;;;;2.90;1.00;;;;;;;26.49;36.81;99868.72;5007724;28;20102;-82
2022/07/09 11:05:18;;;;;;;1.92;0.60;;;;;;;26.37;37.80;99884.00;5005652;28;20114;-81
2022/07/09 11:07:56;;;;;;;2.08;1.10;;;;;;;25.66;39.04;99880.50;5008068;28;20050;-80
2022/07/09 11:10:23;;;;;;;1.77;0.80;;;;;;;25.08;40.38;99877.50;5007789;28;20046;-77
2022/07/09 11:12:50;;;;;;;4.40;0.85;;;;;;;24.79;41.13;99855.53;5011980;28;20072;-81
2022/07/09 11:15:20;;;;;;;0.82;0.60;;;;;;;24.80;41.86;99868.31;5009546;28;20081;-79
2022/07/09 11:17:55;;;;;;;5.15;0.80;;;;;;;24.48;42.13;99857.94;5008770;28;20056;-80
2022/07/09 11:51:34;;;;;;;3.70;0.98;;;;;;;26.85;36.10;99845.69;5011210;28;20049;-79
2022/07/09 11:54:03;;;;;;;2.55;0.63;;;;;;;27.20;35.11;99828.16;5006514;28;20140;-80
2022/07/09 11:56:40;;;;;;;3.33;0.70;;;;;;;26.65;35.96;99838.94;5010468;28;20394;-80
2022/07/09 11:59:07;;;;;;;3.30;0.95;;;;;;;26.10;37.57;99827.31;5010711;28;20050;-80
2022/07/09 12:01:33;;;;;;;1.38;0.90;;;;;;;25.92;37.82;99827.75;5015219;28;20457;-79
2022/07/09 12:04:00;;;;;;;3.67;1.20;;;;;;;25.82;38.85;99824.91;5012013;28;20057;-80
2022/07/09 12:06:26;;;;;;;4.72;1.10;;;;;;;26.26;37.16;99832.97;5013624;28;20057;-80
2022/07/09 12:08:59;;;;;;;1.80;0.68;;;;;;;27.02;37.12;99829.56;5010394;28;20140;-79
2022/07/09 12:11:29;;;;;;;3.80;1.25;;;;;;;27.19;36.38;99823.69;5007041;28;20155;-80
2022/07/09 12:13:55;;;;;;;5.50;0.70;;;;;;;27.21;36.75;99817.81;5017417;28;20196;-80
2022/07/09 12:16:22;;;;;;;1.50;0.88;;;;;;;26.82;36.36;99805.25;5010795;28;20058;-79
2022/07/09 12:18:48;;;;;;;2.47;0.73;;;;;;;26.48;37.30;99804.88;5010001;28;20492;-80
2022/07/09 12:21:15;;;;;;;2.15;0.85;;;;;;;26.11;39.52;99801.13;5020729;28;20062;-79
2022/07/09 12:23:42;;;;;;;2.70;0.68;;;;;;;26.20;36.52;99783.91;5028124;28;20467;-80
2022/07/09 12:26:08;;;;;;;2.00;0.70;;;;;;;26.76;35.94;99797.16;5009756;28;20485;-80
2022/07/09 12:28:36;;;;;;;4.85;1.00;;;;;;;27.07;35.87;99775.69;5008561;28;20066;-80
2022/07/09 12:31:02;;;;;;;0.50;0.50;;;;;;;26.68;32.97;99784.59;5009248;28;20046;-80
2022/07/09 12:33:29;;;;;;;2.00;0.80;;;;;;;26.86;35.01;99774.84;5003079;28;20508;-80
2022/07/09 12:35:56;;;;;;;1.70;0.70;;;;;;;26.83;34.06;99773.44;5012241;28;20053;-80
2022/07/09 12:38:22;;;;;;;2.80;0.80;;;;;;;26.85;32.51;99765.63;5011129;28;20050;-80
2022/07/09 12:40:49;;;;;;;1.75;0.93;;;;;;;26.81;33.98;99777.63;5068621;28;20294;-80
2022/07/09 12:43:15;;;;;;;1.30;0.70;;;;;;;26.70;33.74;99776.78;5012864;28;20057;-80
2022/07/09 12:45:43;;;;;;;5.47;2.25;;;;;;;26.61;34.00;99743.00;5015585;28;20054;-83
2022/07/09 12:48:10;;;;;;;3.45;0.52;;;;;;;26.61;32.50;99739.38;5015173;28;20052;-82
2022/07/09 12:50:36;;;;;;;0.75;0.55;;;;;;;26.72;33.33;99762.56;5091771;28;20054;-78
2022/07/09 12:53:03;;;;;;;1.85;0.80;;;;;;;26.81;33.15;99760.88;5018437;28;20049;-78
2022/07/09 12:55:30;;;;;;;1.25;0.40;;;;;;;26.77;34.25;99760.63;5010218;28;20054;-79
2022/07/09 12:57:56;;;;;;;0.57;0.55;;;;;;;27.07;33.81;99774.84;5023829;28;20050;-79
2022/07/09 13:00:23;;;;;;;2.08;0.57;;;;;;;26.93;32.76;99741.91;5072486;28;20134;-80
2022/07/09 13:02:51;;;;;;;4.75;0.60;;;;;;;26.98;33.29;99753.09;5034727;28;20552;-80
2022/07/09 13:05:18;;;;;;;5.03;0.90;;;;;;;27.01;33.78;99757.28;5011162;28;20073;-80
2022/07/09 13:07:44;;;;;;;1.63;0.90;;;;;;;26.87;34.42;99756.97;5014152;28;20123;-79
2022/07/09 13:10:11;;;;;;;1.05;0.73;;;;;;;26.59;34.85;99753.59;5025984;28;20041;-80
2022/07/09 13:12:38;;;;;;;2.55;0.95;;;;;;;26.59;35.61;99748.03;5008622;28;20451;-80
2022/07/09 13:15:06;;;;;;;2.55;0.73;;;;;;;27.05;35.84;99750.00;5012721;28;20567;-80
2022/07/09 13:17:33;;;;;;;0.95;0.90;;;;;;;27.33;35.97;99731.88;5004550;28;20100;-80
2022/07/09 13:20:02;;;;;;;5.95;1.23;;;;;;;27.77;34.93;99713.56;5014185;28;20058;-80
2022/07/09 13:22:29;;;;;;;2.63;0.87;;;;;;;28.25;34.33;99715.88;5008376;28;20082;-80
2022/07/09 13:24:55;;;;;;;2.97;0.93;;;;;;;28.72;33.11;99714.44;5028648;28;20046;-80
2022/07/09 13:27:22;;;;;;;4.38;1.00;;;;;;;28.79;32.44;99694.53;5049358;28;20141;-80
2022/07/09 13:29:49;;;;;;;4.15;0.77;;;;;;;28.83;31.31;99719.94;5013544;28;20114;-80
2022/07/09 13:32:16;;;;;;;3.03;0.93;;;;;;;28.49;33.20;99706.78;5028254;28;20056;-81
2022/07/09 13:34:42;;;;;;;8.48;1.63;;;;;;;28.52;33.56;99708.97;5075778;28;20134;-80
2022/07/09 13:37:10;;;;;;;4.65;1.25;;;;;;;28.41;32.36;99709.06;5078514;28;20058;-81
2022/07/09 13:39:37;;;;;;;1.60;1.10;;;;;;;28.39;33.44;99714.13;5021262;27;20053;-81